Maimiti — PBIJ — position and weather

sailwx.info

Track history (hours):
 
Tides and Currents Weather Stations Pressure Air Temp Water Temp Dewpoint Dewpoint Depression Visibility Wind Speed Wind Dir Waves Ship Positions

Maimiti

Last reported at 2016-Aug-31 00:33 UTC. Time now 2016-Aug-31 07:54 UTC.
Position N 54°52' E 014°06'.

Length 35 m; draft 6.8 m.

Type: Tug. MMSI: 244850959.

Date/timePositionNaut miles runAvg speedWind from/ knotsBaromVisibWave heightAir tempDewpointWater temp
2016-Aug-31 00:33N 54°52' E 014°06'2 2.3
2016-Aug-30 23:33N 54°50' E 014°05'0 0.0
2016-Aug-30 22:33N 54°50' E 014°05'0 0.0
2016-Aug-30 21:34N 54°50' E 014°05'0 0.1
2016-Aug-30 20:34N 54°50' E 014°05'0 0.1
2016-Aug-30 19:33N 54°50' E 014°04'0 0.1
2016-Aug-30 18:33N 54°50' E 014°04'0 0.1
2016-Aug-30 17:33N 54°50' E 014°05'0 0.4
2016-Aug-30 16:33N 54°50' E 014°05'2 2.0
2016-Aug-30 15:33N 54°52' E 014°06'0 0.4
2016-Aug-30 14:34N 54°52' E 014°05'0 0.0
2016-Aug-30 13:33N 54°52' E 014°05'0 0.0
2016-Aug-30 12:33N 54°52' E 014°05'0 0.0
2016-Aug-30 11:33N 54°52' E 014°05'0 0.0
2016-Aug-30 10:33N 54°52' E 014°05'0 0.0
2016-Aug-30 09:34N 54°52' E 014°05'0 0.0
2016-Aug-30 08:33N 54°52' E 014°05'0 0.0
2016-Aug-30 07:34N 54°52' E 014°05'0 0.0
2016-Aug-30 06:33N 54°52' E 014°05'0 0.0
2016-Aug-30 05:33N 54°52' E 014°05'0 0.0
2016-Aug-30 04:33N 54°52' E 014°05'0 0.0
2016-Aug-30 03:33N 54°52' E 014°05'0 0.0
2016-Aug-30 02:33N 54°52' E 014°05'0 0.0
2016-Aug-30 01:33N 54°52' E 014°05'0 0.0
2016-Aug-30 00:33N 54°52' E 014°05'0 0.0
2016-Aug-29 23:33N 54°52' E 014°05'0 0.0
2016-Aug-29 22:34N 54°52' E 014°05'0 0.0
2016-Aug-29 21:33N 54°52' E 014°05'0 0.0
2016-Aug-29 20:33N 54°52' E 014°05'0 0.0
2016-Aug-29 19:34N 54°52' E 014°05'0 0.0
2016-Aug-29 18:33N 54°52' E 014°05'0 0.0
2016-Aug-29 17:34N 54°52' E 014°05'0 0.0
2016-Aug-29 16:33N 54°52' E 014°05'0 0.0
2016-Aug-29 15:34N 54°52' E 014°05'0 0.0
2016-Aug-29 14:33N 54°52' E 014°05'0 0.0
2016-Aug-29 13:33N 54°52' E 014°05'0 0.0
2016-Aug-29 12:33N 54°52' E 014°05'0 0.0
2016-Aug-29 11:33N 54°52' E 014°05'0 0.0
2016-Aug-29 10:33N 54°52' E 014°05'0 0.0
2016-Aug-29 09:34N 54°52' E 014°05'0 0.0
2016-Aug-29 08:34N 54°52' E 014°05'0 0.0
2016-Aug-29 07:33N 54°52' E 014°05'0 0.0
2016-Aug-29 06:33N 54°52' E 014°05'0 0.0
2016-Aug-29 05:33N 54°52' E 014°05'0 0.0
2016-Aug-29 04:33N 54°52' E 014°05'0 0.0
2016-Aug-29 03:33N 54°52' E 014°05'0 0.0
2016-Aug-29 02:33N 54°52' E 014°05'0 0.0
2016-Aug-29 01:33N 54°52' E 014°05'0 0.0
2016-Aug-29 00:34N 54°52' E 014°05'0 0.0
2016-Aug-28 23:34N 54°52' E 014°05'0 0.1
2016-Aug-28 22:33N 54°52' E 014°05'0 0.0
2016-Aug-28 21:33N 54°52' E 014°05'0 0.1
2016-Aug-28 20:26N 54°52' E 014°05'0 0.0
2016-Aug-28 19:25N 54°52' E 014°05'0 0.0
2016-Aug-28 18:33N 54°52' E 014°05'0 0.0
2016-Aug-28 17:28N 54°52' E 014°05'0 0.0
2016-Aug-28 16:33N 54°52' E 014°05'0 0.0
2016-Aug-28 15:33N 54°52' E 014°05'0 0.0
2016-Aug-28 14:34N 54°52' E 014°05'0 0.0
2016-Aug-28 13:33N 54°52' E 014°05'1 0.3
2016-Aug-28 11:22N 54°52' E 014°05'0 0.0
2016-Aug-28 10:14N 54°52' E 014°05'0 0.3
2016-Aug-28 09:33N 54°51' E 014°05'1 1.1
2016-Aug-28 08:32N 54°52' E 014°04'1 0.8
2016-Aug-28 07:33N 54°52' E 014°05'1 0.8
2016-Aug-28 06:32N 54°52' E 014°06'2 1.8
2016-Aug-28 05:33N 54°52' E 014°09'5 4.4
2016-Aug-28 04:20N 54°47' E 014°05'3 3.6
2016-Aug-28 03:25N 54°45' E 014°01'8 4.1
2016-Aug-28 01:27N 54°38' E 013°52'4 4.0
2016-Aug-28 00:34N 54°36' E 013°49'4 4.4
2016-Aug-27 23:34N 54°32' E 013°44'5 4.1
2016-Aug-27 22:20N 54°28' E 013°38'2 2.6
2016-Aug-27 21:33N 54°29' E 013°35'0 0.0
2016-Aug-27 20:34N 54°29' E 013°35'0 0.0
2016-Aug-27 19:33N 54°29' E 013°35'0 0.0
2016-Aug-27 18:32N 54°29' E 013°35'0 0.0
2016-Aug-27 17:29N 54°29' E 013°35'0 0.0
2016-Aug-27 16:33N 54°29' E 013°35'0 0.0
2016-Aug-26 09:08N 54°29' E 013°35'0 0.2
2016-Aug-26 08:33N 54°29' E 013°35'1 1.1
2016-Aug-26 07:33N 54°29' E 013°37'2 0.7
2016-Aug-26 04:31N 54°30' E 013°40'9 9.8
2016-Aug-26 03:33N 54°38' E 013°47'10 9.9
2016-Aug-26 02:33N 54°46' E 013°58'5 4.7
2016-Aug-26 01:34N 54°48' E 014°05'0 0.2
2016-Aug-26 00:34N 54°48' E 014°05'0 0.3
2016-Aug-25 23:34N 54°49' E 014°06'0 0.4
2016-Aug-25 22:33N 54°49' E 014°05'0 0.0
2016-Aug-25 21:33N 54°49' E 014°05'0 0.0
2016-Aug-25 20:34N 54°49' E 014°05'0 0.0
2016-Aug-25 19:33N 54°49' E 014°05'0 0.0
2016-Aug-25 18:33N 54°49' E 014°05'0 0.0
2016-Aug-25 17:34N 54°49' E 014°05'0 0.0
2016-Aug-25 16:34N 54°49' E 014°05'0 0.0
2016-Aug-25 15:33N 54°49' E 014°05'0 0.0
2016-Aug-25 14:33N 54°49' E 014°05'0 0.0
2016-Aug-25 13:33N 54°49' E 014°05'0 0.0
2016-Aug-25 12:33N 54°49' E 014°05'0 0.0
2016-Aug-25 11:34N 54°49' E 014°05'2 1.9
2016-Aug-25 10:33N 54°51' E 014°06'2 1.6
2016-Aug-25 09:33N 54°52' E 014°03'6 5.3
2016-Aug-25 08:31N 54°47' E 014°04'10 9.9
2016-Aug-25 07:31N 54°41' E 013°50'8 0.2
2016-Aug-23 10:06N 54°47' E 013°58'5 9.9
2016-Aug-23 09:34N 54°51' E 014°04'2 1.6
2016-Aug-23 08:31N 54°52' E 014°05'0 0.5
2016-Aug-23 07:34N 54°52' E 014°05'0 0.2
2016-Aug-23 06:22N 54°52' E 014°05'0 0.2
2016-Aug-23 05:32N 54°52' E 014°05'1 0.6
2016-Aug-23 04:21N 54°51' E 014°04'1 0.0
2016-Aug-22 02:26N 54°52' E 014°05'0 0.0
2016-Aug-22 01:20N 54°52' E 014°05'1 0.7
2016-Aug-22 00:33N 54°52' E 014°04'0 0.2
2016-Aug-21 23:34N 54°52' E 014°04'1 0.6
2016-Aug-21 22:23N 54°52' E 014°05'0 0.0
2016-Aug-21 21:30N 54°52' E 014°05'0 0.0
2016-Aug-21 20:33N 54°52' E 014°05'0 0.0
2016-Aug-21 19:33N 54°52' E 014°05'0 0.0
2016-Aug-21 18:34N 54°52' E 014°05'0 0.0
2016-Aug-21 17:33N 54°52' E 014°05'0 0.0
2016-Aug-21 16:33N 54°52' E 014°05'0 0.0
2016-Aug-21 15:34N 54°52' E 014°05'0 0.0
2016-Aug-21 14:34N 54°52' E 014°05'0 0.0
2016-Aug-21 13:07N 54°52' E 014°05'0 0.0
2016-Aug-21 12:33N 54°52' E 014°05'0 0.0
2016-Aug-21 11:33N 54°52' E 014°05'0 0.0
2016-Aug-21 10:33N 54°52' E 014°05'0 0.0
2016-Aug-21 04:33N 54°52' E 014°05'0 0.0
2016-Aug-21 03:33N 54°52' E 014°05'0 0.0
2016-Aug-21 02:33N 54°52' E 014°05'0 0.0
2016-Aug-21 01:34N 54°52' E 014°05'  
Track history (hours):
 
Tides and Currents Weather Stations Pressure Air Temp Water Temp Dewpoint Dewpoint Depression Visibility Wind Speed Wind Dir Waves Ship Positions

Maimiti

Last reported at 2016-Aug-31 00:33 UTC. Time now 2016-Aug-31 07:54 UTC.
Position N 54°52' E 014°06'.

Length 35 m; draft 6.8 m.

Type: Tug. MMSI: 244850959.

Date/timePositionNaut miles runAvg speedWind from/ knotsBaromVisibWave heightAir tempDewpointWater temp
2016-Aug-31 00:33N 54°52' E 014°06'2 2.3
2016-Aug-30 23:33N 54°50' E 014°05'0 0.0
2016-Aug-30 22:33N 54°50' E 014°05'0 0.0
2016-Aug-30 21:34N 54°50' E 014°05'0 0.1
2016-Aug-30 20:34N 54°50' E 014°05'0 0.1
2016-Aug-30 19:33N 54°50' E 014°04'0 0.1
2016-Aug-30 18:33N 54°50' E 014°04'0 0.1
2016-Aug-30 17:33N 54°50' E 014°05'0 0.4
2016-Aug-30 16:33N 54°50' E 014°05'2 2.0
2016-Aug-30 15:33N 54°52' E 014°06'0 0.4
2016-Aug-30 14:34N 54°52' E 014°05'0 0.0
2016-Aug-30 13:33N 54°52' E 014°05'0 0.0
2016-Aug-30 12:33N 54°52' E 014°05'0 0.0
2016-Aug-30 11:33N 54°52' E 014°05'0 0.0
2016-Aug-30 10:33N 54°52' E 014°05'0 0.0
2016-Aug-30 09:34N 54°52' E 014°05'0 0.0
2016-Aug-30 08:33N 54°52' E 014°05'0 0.0
2016-Aug-30 07:34N 54°52' E 014°05'0 0.0
2016-Aug-30 06:33N 54°52' E 014°05'0 0.0
2016-Aug-30 05:33N 54°52' E 014°05'0 0.0
2016-Aug-30 04:33N 54°52' E 014°05'0 0.0
2016-Aug-30 03:33N 54°52' E 014°05'0 0.0
2016-Aug-30 02:33N 54°52' E 014°05'0 0.0
2016-Aug-30 01:33N 54°52' E 014°05'0 0.0
2016-Aug-30 00:33N 54°52' E 014°05'0 0.0
2016-Aug-29 23:33N 54°52' E 014°05'0 0.0
2016-Aug-29 22:34N 54°52' E 014°05'0 0.0
2016-Aug-29 21:33N 54°52' E 014°05'0 0.0
2016-Aug-29 20:33N 54°52' E 014°05'0 0.0
2016-Aug-29 19:34N 54°52' E 014°05'0 0.0
2016-Aug-29 18:33N 54°52' E 014°05'0 0.0
2016-Aug-29 17:34N 54°52' E 014°05'0 0.0
2016-Aug-29 16:33N 54°52' E 014°05'0 0.0
2016-Aug-29 15:34N 54°52' E 014°05'0 0.0
2016-Aug-29 14:33N 54°52' E 014°05'0 0.0
2016-Aug-29 13:33N 54°52' E 014°05'0 0.0
2016-Aug-29 12:33N 54°52' E 014°05'0 0.0
2016-Aug-29 11:33N 54°52' E 014°05'0 0.0
2016-Aug-29 10:33N 54°52' E 014°05'0 0.0
2016-Aug-29 09:34N 54°52' E 014°05'0 0.0
2016-Aug-29 08:34N 54°52' E 014°05'0 0.0
2016-Aug-29 07:33N 54°52' E 014°05'0 0.0
2016-Aug-29 06:33N 54°52' E 014°05'0 0.0
2016-Aug-29 05:33N 54°52' E 014°05'0 0.0
2016-Aug-29 04:33N 54°52' E 014°05'0 0.0
2016-Aug-29 03:33N 54°52' E 014°05'0 0.0
2016-Aug-29 02:33N 54°52' E 014°05'0 0.0
2016-Aug-29 01:33N 54°52' E 014°05'0 0.0
2016-Aug-29 00:34N 54°52' E 014°05'0 0.0
2016-Aug-28 23:34N 54°52' E 014°05'0 0.1
2016-Aug-28 22:33N 54°52' E 014°05'0 0.0
2016-Aug-28 21:33N 54°52' E 014°05'0 0.1
2016-Aug-28 20:26N 54°52' E 014°05'0 0.0
2016-Aug-28 19:25N 54°52' E 014°05'0 0.0
2016-Aug-28 18:33N 54°52' E 014°05'0 0.0
2016-Aug-28 17:28N 54°52' E 014°05'0 0.0
2016-Aug-28 16:33N 54°52' E 014°05'0 0.0
2016-Aug-28 15:33N 54°52' E 014°05'0 0.0
2016-Aug-28 14:34N 54°52' E 014°05'0 0.0
2016-Aug-28 13:33N 54°52' E 014°05'1 0.3
2016-Aug-28 11:22N 54°52' E 014°05'0 0.0
2016-Aug-28 10:14N 54°52' E 014°05'0 0.3
2016-Aug-28 09:33N 54°51' E 014°05'1 1.1
2016-Aug-28 08:32N 54°52' E 014°04'1 0.8
2016-Aug-28 07:33N 54°52' E 014°05'1 0.8
2016-Aug-28 06:32N 54°52' E 014°06'2 1.8
2016-Aug-28 05:33N 54°52' E 014°09'5 4.4
2016-Aug-28 04:20N 54°47' E 014°05'3 3.6
2016-Aug-28 03:25N 54°45' E 014°01'8 4.1
2016-Aug-28 01:27N 54°38' E 013°52'4 4.0
2016-Aug-28 00:34N 54°36' E 013°49'4 4.4
2016-Aug-27 23:34N 54°32' E 013°44'5 4.1
2016-Aug-27 22:20N 54°28' E 013°38'2 2.6
2016-Aug-27 21:33N 54°29' E 013°35'0 0.0
2016-Aug-27 20:34N 54°29' E 013°35'0 0.0
2016-Aug-27 19:33N 54°29' E 013°35'0 0.0
2016-Aug-27 18:32N 54°29' E 013°35'0 0.0
2016-Aug-27 17:29N 54°29' E 013°35'0 0.0
2016-Aug-27 16:33N 54°29' E 013°35'0 0.0
2016-Aug-26 09:08N 54°29' E 013°35'0 0.2
2016-Aug-26 08:33N 54°29' E 013°35'1 1.1
2016-Aug-26 07:33N 54°29' E 013°37'2 0.7
2016-Aug-26 04:31N 54°30' E 013°40'9 9.8
2016-Aug-26 03:33N 54°38' E 013°47'10 9.9
2016-Aug-26 02:33N 54°46' E 013°58'5 4.7
2016-Aug-26 01:34N 54°48' E 014°05'0 0.2
2016-Aug-26 00:34N 54°48' E 014°05'0 0.3
2016-Aug-25 23:34N 54°49' E 014°06'0 0.4
2016-Aug-25 22:33N 54°49' E 014°05'0 0.0
2016-Aug-25 21:33N 54°49' E 014°05'0 0.0
2016-Aug-25 20:34N 54°49' E 014°05'0 0.0
2016-Aug-25 19:33N 54°49' E 014°05'0 0.0
2016-Aug-25 18:33N 54°49' E 014°05'0 0.0
2016-Aug-25 17:34N 54°49' E 014°05'0 0.0
2016-Aug-25 16:34N 54°49' E 014°05'0 0.0
2016-Aug-25 15:33N 54°49' E 014°05'0 0.0
2016-Aug-25 14:33N 54°49' E 014°05'0 0.0
2016-Aug-25 13:33N 54°49' E 014°05'0 0.0
2016-Aug-25 12:33N 54°49' E 014°05'0 0.0
2016-Aug-25 11:34N 54°49' E 014°05'2 1.9
2016-Aug-25 10:33N 54°51' E 014°06'2 1.6
2016-Aug-25 09:33N 54°52' E 014°03'6 5.3
2016-Aug-25 08:31N 54°47' E 014°04'10 9.9
2016-Aug-25 07:31N 54°41' E 013°50'8 0.2
2016-Aug-23 10:06N 54°47' E 013°58'5 9.9
2016-Aug-23 09:34N 54°51' E 014°04'2 1.6
2016-Aug-23 08:31N 54°52' E 014°05'0 0.5
2016-Aug-23 07:34N 54°52' E 014°05'0 0.2
2016-Aug-23 06:22N 54°52' E 014°05'0 0.2
2016-Aug-23 05:32N 54°52' E 014°05'1 0.6
2016-Aug-23 04:21N 54°51' E 014°04'1 0.0
2016-Aug-22 02:26N 54°52' E 014°05'0 0.0
2016-Aug-22 01:20N 54°52' E 014°05'1 0.7
2016-Aug-22 00:33N 54°52' E 014°04'0 0.2
2016-Aug-21 23:34N 54°52' E 014°04'1 0.6
2016-Aug-21 22:23N 54°52' E 014°05'0 0.0
2016-Aug-21 21:30N 54°52' E 014°05'0 0.0
2016-Aug-21 20:33N 54°52' E 014°05'0 0.0
2016-Aug-21 19:33N 54°52' E 014°05'0 0.0
2016-Aug-21 18:34N 54°52' E 014°05'0 0.0
2016-Aug-21 17:33N 54°52' E 014°05'0 0.0
2016-Aug-21 16:33N 54°52' E 014°05'0 0.0
2016-Aug-21 15:34N 54°52' E 014°05'0 0.0
2016-Aug-21 14:34N 54°52' E 014°05'0 0.0
2016-Aug-21 13:07N 54°52' E 014°05'0 0.0
2016-Aug-21 12:33N 54°52' E 014°05'0 0.0
2016-Aug-21 11:33N 54°52' E 014°05'0 0.0
2016-Aug-21 10:33N 54°52' E 014°05'0 0.0
2016-Aug-21 04:33N 54°52' E 014°05'0 0.0
2016-Aug-21 03:33N 54°52' E 014°05'0 0.0
2016-Aug-21 02:33N 54°52' E 014°05'0 0.0
2016-Aug-21 01:34N 54°52' E 014°05'  

Dump ship's entire track history